Time;durP1;ratioP1;P1;durP2;ratioP2;P2;SDS_P1;SDS_P2;PMS_P1;PMS_P2;Temp;Humidity;BMP_temperature;BMP_pressure;BME280_temperature;BME280_humidity;BME280_pressure;Samples;Min_cycle;Max_cycle;Signal;HPM_P1;HPM_P2
2023/03/17 07:22:31;;;;;;;3.53;1.73;;;10.70;84.10;;;;;;5839400;24;20025;31
2023/03/17 07:24:57;;;;;;;6.28;2.58;;;10.70;84.00;;;;;;4767587;30;20300;-74
2023/03/17 07:27:25;;;;;;;6.13;2.17;;;10.80;83.90;;;;;;4786618;29;20059;-75
2023/03/17 07:29:51;;;;;;;5.40;2.50;;;10.80;83.80;;;;;;4768012;30;20109;-74
2023/03/17 07:32:17;;;;;;;6.93;2.50;;;10.90;83.50;;;;;;4780838;30;20043;-74
2023/03/17 07:34:42;;;;;;;5.90;2.53;;;10.80;83.40;;;;;;4769489;30;20073;-73
2023/03/17 07:37:09;;;;;;;4.93;2.15;;;10.90;84.00;;;;;;4767589;30;20374;-74
2023/03/17 07:39:35;;;;;;;4.78;2.30;;;10.90;84.20;;;;;;4783698;29;20405;-76
2023/03/17 07:42:01;;;;;;;5.82;2.15;;;11.00;84.30;;;;;;4784466;29;20038;-75
2023/03/17 07:44:27;;;;;;;7.55;2.70;;;11.00;83.90;;;;;;4770022;30;20051;-75
2023/03/17 07:46:55;;;;;;;8.30;2.08;;;11.10;83.80;;;;;;4786038;29;20027;-75
2023/03/17 07:49:21;;;;;;;7.13;2.38;;;11.10;83.60;;;;;;4769868;30;20412;-74
2023/03/17 07:51:46;;;;;;;9.77;3.60;;;11.10;83.50;;;;;;4784644;30;20031;-74
2023/03/17 07:54:13;;;;;;;6.30;3.38;;;11.20;83.70;;;;;;4785618;29;20048;-74
2023/03/17 07:56:39;;;;;;;5.55;2.53;;;11.30;83.70;;;;;;4785624;29;20036;-74
2023/03/17 07:59:07;;;;;;;5.32;2.45;;;11.30;83.50;;;;;;4767581;30;20083;-75
2023/03/17 08:01:34;;;;;;;5.53;2.15;;;11.40;83.30;;;;;;4785867;30;20036;-75
2023/03/17 08:04:00;;;;;;;4.78;2.38;;;11.40;83.20;;;;;;4785943;29;20047;-75
2023/03/17 08:06:26;;;;;;;7.40;2.28;;;11.50;83.30;;;;;;4786957;30;20085;-75
2023/03/17 08:08:53;;;;;;;3.95;2.08;;;11.50;83.10;;;;;;4787214;29;20035;-75
2023/03/17 08:11:19;;;;;;;6.68;2.38;;;11.60;82.90;;;;;;4790129;29;20047;-74
2023/03/17 08:13:46;;;;;;;6.00;1.80;;;11.70;82.40;;;;;;4789483;30;20043;-74
2023/03/17 08:16:12;;;;;;;4.75;2.03;;;11.70;82.50;;;;;;4790579;30;20146;-75
2023/03/17 08:18:38;;;;;;;4.43;1.80;;;11.80;82.50;;;;;;4770983;30;20463;-74
2023/03/17 08:21:04;;;;;;;7.63;1.90;;;11.90;82.50;;;;;;4771204;30;20118;-74
2023/03/17 08:23:31;;;;;;;3.47;1.70;;;11.90;82.40;;;;;;4756340;30;20067;-75
2023/03/17 08:26:02;;;;;;;7.07;1.98;;;12.00;82.00;;;;;;4756907;30;20093;-75
2023/03/17 08:28:27;;;;;;;4.63;2.00;;;12.00;82.00;;;;;;4772249;30;20024;-76
2023/03/17 08:30:53;;;;;;;4.82;2.25;;;12.10;81.80;;;;;;4756662;30;20039;-76
2023/03/17 08:33:20;;;;;;;5.07;2.05;;;12.20;81.50;;;;;;4770813;30;20043;-77
2023/03/17 08:35:45;;;;;;;5.38;2.05;;;12.30;81.60;;;;;;4794003;29;20039;-75
2023/03/17 08:38:12;;;;;;;3.97;1.90;;;12.40;81.90;;;;;;4789104;29;20039;-76
2023/03/17 08:40:39;;;;;;;3.90;2.38;;;12.50;81.60;;;;;;4791133;29;20337;-77
2023/03/17 08:43:05;;;;;;;5.30;2.33;;;12.60;81.00;;;;;;4782162;29;20115;-76
2023/03/17 08:45:31;;;;;;;5.45;1.75;;;12.60;80.60;;;;;;4756134;30;20504;-75
2023/03/17 08:47:57;;;;;;;5.93;2.20;;;12.70;80.20;;;;;;4755779;30;20426;-75
2023/03/17 08:50:23;;;;;;;5.55;2.10;;;12.80;80.10;;;;;;4755701;30;20092;-75
2023/03/17 08:52:50;;;;;;;4.43;2.50;;;12.90;80.40;;;;;;4756298;30;20043;-74
2023/03/17 08:55:17;;;;;;;3.22;2.17;;;13.00;80.00;;;;;;4760845;30;20054;-73
2023/03/17 08:57:43;;;;;;;5.32;1.98;;;13.20;79.90;;;;;;4772003;30;20032;-76
2023/03/17 09:00:11;;;;;;;4.80;2.00;;;13.30;79.20;;;;;;4756050;30;20120;-75
2023/03/17 09:02:39;;;;;;;4.25;1.77;;;13.40;79.00;;;;;;4771824;30;20032;-76
2023/03/17 09:05:06;;;;;;;4.70;1.83;;;13.40;78.30;;;;;;4787855;29;20495;-75
2023/03/17 09:07:32;;;;;;;7.03;2.38;;;13.40;79.00;;;;;;4772153;30;20034;-76
2023/03/17 09:09:59;;;;;;;2.83;1.95;;;13.50;78.00;;;;;;4786991;30;20510;-76
2023/03/17 09:12:24;;;;;;;8.70;2.33;;;13.50;77.80;;;;;;4768533;30;20505;-75
2023/03/17 09:14:50;;;;;;;5.68;2.45;;;13.60;78.30;;;;;;4781575;29;20047;-76
2023/03/17 09:17:16;;;;;;;4.20;1.83;;;13.60;78.20;;;;;;4772807;30;20040;-75
2023/03/17 09:19:42;;;;;;;6.22;2.22;;;13.70;78.00;;;;;;4768984;29;20047;-76
2023/03/17 09:22:12;;;;;;;5.85;2.47;;;13.80;77.70;;;;;;4785744;30;20039;-76
2023/03/17 09:24:38;;;;;;;9.73;2.00;;;13.90;77.80;;;;;;4765682;30;20055;-75
2023/03/17 09:27:04;;;;;;;4.55;1.60;;;14.00;77.50;;;;;;4785989;30;20057;-75
2023/03/17 09:29:30;;;;;;;3.17;1.70;;;14.10;76.90;;;;;;4770999;30;20047;-77
2023/03/17 09:31:55;;;;;;;4.45;2.17;;;14.20;76.30;;;;;;4786690;30;20425;-78
2023/03/17 09:34:23;;;;;;;5.25;2.17;;;14.30;75.50;;;;;;4782557;29;20496;-75
2023/03/17 09:36:49;;;;;;;6.50;2.00;;;14.40;75.50;;;;;;4781831;29;20087;-74
2023/03/17 09:39:15;;;;;;;4.32;1.80;;;14.40;75.30;;;;;;4770950;30;20942;-80
2023/03/17 09:42:06;;;;;;;6.20;2.05;;;14.50;74.50;;;;;;4785659;29;20031;-79
2023/03/17 09:44:55;;;;;;;6.55;1.77;;;14.40;74.60;;;;;;4771435;30;20072;-78
2023/03/17 09:47:39;;;;;;;5.50;2.03;;;14.40;74.50;;;;;;4782092;30;20031;-81
2023/03/17 09:50:15;;;;;;;6.13;1.90;;;14.50;74.60;;;;;;4786067;30;20073;-77
2023/03/17 09:52:41;;;;;;;4.43;1.98;;;14.50;74.60;;;;;;4786183;30;20397;-76
2023/03/17 09:55:18;;;;;;;3.03;1.95;;;14.50;74.60;;;;;;4787065;29;20373;-77
2023/03/17 09:57:45;;;;;;;4.07;1.75;;;14.50;74.50;;;;;;4787315;29;20031;-76
2023/03/17 10:00:13;;;;;;;4.68;1.80;;;14.60;74.60;;;;;;4786793;30;20031;-78
2023/03/17 10:02:40;;;;;;;4.57;2.17;;;14.70;74.70;;;;;;4787007;29;20473;-77
2023/03/17 10:05:26;;;;;;;5.00;2.00;;;14.90;75.20;;;;;;4771303;30;20058;-77
2023/03/17 10:08:07;;;;;;;9.05;2.30;;;15.10;74.80;;;;;;4786525;30;20207;-78
2023/03/17 10:10:45;;;;;;;5.63;2.10;;;15.10;73.90;;;;;;4770773;30;20825;-78
2023/03/17 10:13:40;;;;;;;4.95;1.80;;;15.20;73.90;;;;;;4785329;30;20180;-77
2023/03/17 10:16:20;;;;;;;4.88;1.88;;;15.30;74.00;;;;;;4761452;30;20043;-78
2023/03/17 10:18:54;;;;;;;3.50;2.10;;;15.50;74.90;;;;;;4784766;30;20031;-77
2023/03/17 10:21:29;;;;;;;5.72;1.92;;;15.60;74.00;;;;;;4786388;30;20133;-76
2023/03/17 10:23:56;;;;;;;3.70;2.00;;;15.50;72.40;;;;;;4785313;30;20127;-76
2023/03/17 10:26:42;;;;;;;6.35;2.30;;;15.50;72.20;;;;;;4786362;29;20426;-76
2023/03/17 10:29:22;;;;;;;2.95;1.85;;;15.60;72.30;;;;;;4785720;30;20039;-77
2023/03/17 10:31:51;;;;;;;5.40;2.00;;;15.60;73.50;;;;;;4785802;29;20035;-76
2023/03/17 10:34:18;;;;;;;7.38;2.22;;;15.70;73.00;;;;;;4770866;30;20494;-75
2023/03/17 10:36:52;;;;;;;3.75;1.67;;;15.80;72.00;;;;;;4785476;30;20076;-75
2023/03/17 10:39:21;;;;;;;6.63;2.05;;;15.90;72.60;;;;;;4779409;30;20504;-77
2023/03/17 10:42:11;;;;;;;5.70;2.30;;;15.90;72.10;;;;;;4787561;30;20131;-76
2023/03/17 10:44:49;;;;;;;2.78;1.80;;;16.00;72.00;;;;;;4787060;29;20035;-76
2023/03/17 10:47:32;;;;;;;3.60;1.80;;;16.00;71.80;;;;;;4787034;29;20110;-76
2023/03/17 10:50:12;;;;;;;4.97;2.22;;;15.90;71.70;;;;;;4786955;30;20104;-75
2023/03/17 10:52:39;;;;;;;5.40;2.05;;;15.80;71.80;;;;;;4783122;29;20131;-74
2023/03/17 10:55:12;;;;;;;5.30;2.47;;;15.70;71.80;;;;;;4783537;30;20039;-76
2023/03/17 10:57:38;;;;;;;6.38;2.40;;;15.70;72.30;;;;;;4786649;30;20081;-76
2023/03/17 11:00:15;;;;;;;3.35;2.00;;;15.70;72.30;;;;;;4787070;30;20421;-76
2023/03/17 11:02:49;;;;;;;4.85;2.83;;;15.70;72.30;;;;;;4786806;30;20031;-76
2023/03/17 11:05:27;;;;;;;7.00;2.13;;;15.80;72.40;;;;;;4786339;29;20050;-76
2023/03/17 11:08:18;;;;;;;6.90;2.65;;;15.90;73.40;;;;;;4787040;29;20119;-77
2023/03/17 11:10:44;;;;;;;6.05;2.22;;;15.90;72.40;;;;;;4770778;30;20047;-76
2023/03/17 11:13:15;;;;;;;4.68;2.45;;;16.00;72.50;;;;;;4769098;30;20128;-78
2023/03/17 11:15:47;;;;;;;4.25;2.35;;;16.00;72.60;;;;;;4772189;30;20035;-76
2023/03/17 11:18:18;;;;;;;5.93;2.53;;;15.90;71.70;;;;;;4769268;30;20061;-76
2023/03/17 11:20:49;;;;;;;7.90;2.90;;;16.00;72.90;;;;;;4785751;30;20039;-75
2023/03/17 11:23:25;;;;;;;6.10;2.80;;;16.10;73.20;;;;;;4779786;30;20926;-75
2023/03/17 11:26:26;;;;;;;8.73;2.70;;;16.10;72.60;;;;;;4785632;30;20043;-76
2023/03/17 11:29:27;;;;;;;5.32;2.63;;;16.10;72.90;;;;;;4783145;30;20059;-76
2023/03/17 11:32:22;;;;;;;5.85;2.65;;;16.20;73.20;;;;;;4768170;30;20039;-75
2023/03/17 11:35:07;;;;;;;5.85;2.60;;;16.30;73.00;;;;;;4786208;30;20071;-76
2023/03/17 11:37:44;;;;;;;7.72;2.40;;;16.30;73.50;;;;;;4784282;30;20043;-76
2023/03/17 11:40:16;;;;;;;4.63;2.50;;;16.30;73.20;;;;;;4783448;30;20492;-77
2023/03/17 11:42:53;;;;;;;6.80;3.03;;;16.20;72.80;;;;;;4784925;29;20032;-77
2023/03/17 11:45:26;;;;;;;4.40;2.67;;;16.10;73.00;;;;;;4789817;30;20039;-76
2023/03/17 11:48:13;;;;;;;4.97;2.65;;;16.00;73.20;;;;;;4772703;30;20074;-76
2023/03/17 11:51:00;;;;;;;4.90;2.92;;;16.10;74.20;;;;;;4789285;30;20648;-76
2023/03/17 11:53:44;;;;;;;6.85;3.33;;;16.20;74.40;;;;;;4789388;30;20035;-76
2023/03/17 11:56:17;;;;;;;3.28;2.45;;;16.20;74.10;;;;;;4772990;30;20118;-74
2023/03/17 11:58:48;;;;;;;5.72;2.88;;;16.30;74.00;;;;;;4771024;30;20163;-76
2023/03/17 12:01:28;;;;;;;6.63;3.83;;;16.40;73.50;;;;;;4789000;30;20468;-74
2023/03/17 12:04:23;;;;;;;6.63;2.92;;;16.50;73.20;;;;;;4789253;30;20047;-73
2023/03/17 12:06:57;;;;;;;7.45;2.78;;;16.60;73.50;;;;;;4780095;30;20058;-73
2023/03/17 12:09:32;;;;;;;4.03;2.40;;;16.60;73.10;;;;;;4788705;29;20071;-74
2023/03/17 12:11:59;;;;;;;6.43;2.78;;;16.70;73.20;;;;;;4788228;29;20380;-74
2023/03/17 12:14:33;;;;;;;7.88;3.05;;;16.90;72.90;;;;;;4772693;30;20036;-76
2023/03/17 12:17:09;;;;;;;3.45;2.67;;;16.90;72.60;;;;;;4788809;30;20051;-75
2023/03/17 12:19:38;;;;;;;6.30;2.83;;;16.90;71.90;;;;;;4788747;30;20031;-75
2023/03/17 12:22:43;;;;;;;6.35;2.80;;;17.00;71.90;;;;;;4788572;29;20042;-75
2023/03/17 12:25:19;;;;;;;5.18;2.70;;;17.10;72.80;;;;;;4750149;30;20044;-75
2023/03/17 12:27:56;;;;;;;6.28;2.80;;;17.20;72.40;;;;;;4767928;30;20487;-75
2023/03/17 12:30:32;;;;;;;7.20;3.08;;;17.30;71.60;;;;;;4772728;30;20114;-75
2023/03/17 12:33:11;;;;;;;5.90;2.83;;;17.40;71.40;;;;;;4772550;30;20031;-75
2023/03/17 12:35:37;;;;;;;7.57;3.00;;;17.50;71.30;;;;;;4788077;29;20043;-76
2023/03/17 12:38:42;;;;;;;7.45;3.05;;;17.60;70.70;;;;;;4785933;30;20038;-74
2023/03/17 12:41:33;;;;;;;6.60;2.80;;;17.60;70.20;;;;;;4777979;29;20808;-75
2023/03/17 12:44:07;;;;;;;9.07;2.92;;;17.60;69.90;;;;;;4785047;30;20122;-74
2023/03/17 12:47:05;;;;;;;6.05;3.13;;;17.60;70.00;;;;;;4772423;30;20480;-75
2023/03/17 12:50:05;;;;;;;5.38;2.58;;;17.70;70.20;;;;;;4771754;30;20050;-75
2023/03/17 12:52:43;;;;;;;6.20;2.83;;;17.80;69.90;;;;;;4788943;29;20028;-75
2023/03/17 12:55:14;;;;;;;8.50;3.17;;;17.80;69.40;;;;;;4772171;30;20046;-75
2023/03/17 12:57:45;;;;;;;6.68;3.42;;;17.90;69.30;;;;;;4789734;30;20035;-75
2023/03/17 13:00:18;;;;;;;6.03;2.70;;;17.80;69.00;;;;;;4789048;29;20035;-75
2023/03/17 13:02:49;;;;;;;4.72;2.25;;;17.70;68.70;;;;;;4787489;30;20224;-75
2023/03/17 13:05:17;;;;;;;5.88;3.28;;;17.60;69.30;;;;;;4788424;30;20046;-75
2023/03/17 13:08:05;;;;;;;5.35;3.00;;;17.60;69.70;;;;;;4786874;29;20190;-74
2023/03/17 13:10:47;;;;;;;4.97;2.72;;;17.60;69.40;;;;;;4788273;30;20063;-75
2023/03/17 13:13:46;;;;;;;6.10;2.97;;;17.60;69.70;;;;;;4787860;29;20616;-75
2023/03/17 13:16:33;;;;;;;7.57;3.20;;;17.50;70.40;;;;;;4787007;30;20054;-75
2023/03/17 13:19:19;;;;;;;7.32;2.85;;;17.50;71.20;;;;;;4786815;30;20027;-75
2023/03/17 13:21:56;;;;;;;9.32;3.00;;;17.60;70.90;;;;;;4787973;29;20039;-76
2023/03/17 13:24:46;;;;;;;8.65;3.08;;;17.60;71.10;;;;;;4771585;30;20059;-74
2023/03/17 13:27:32;;;;;;;4.95;2.45;;;17.70;70.90;;;;;;4785719;29;20047;-76
2023/03/17 13:30:25;;;;;;;5.70;2.60;;;17.60;70.30;;;;;;4771810;30;20067;-74
2023/03/17 13:33:02;;;;;;;6.35;3.05;;;17.70;70.20;;;;;;4787356;29;20046;-75
2023/03/17 13:36:15;;;;;;;5.97;2.88;;;17.70;70.00;;;;;;4771255;30;20043;-74
2023/03/17 13:38:52;;;;;;;6.73;3.27;;;17.70;70.20;;;;;;4771496;30;20352;-74
2023/03/17 13:41:26;;;;;;;7.53;3.83;;;17.70;69.80;;;;;;4785973;30;20073;-74
2023/03/17 13:44:23;;;;;;;5.82;2.78;;;17.60;69.60;;;;;;4771843;30;20492;-74
2023/03/17 13:46:48;;;;;;;4.82;3.08;;;17.60;70.20;;;;;;4787387;30;20063;-74
2023/03/17 13:49:17;;;;;;;7.18;3.40;;;17.60;70.30;;;;;;4786854;29;20424;-72
2023/03/17 13:51:51;;;;;;;4.88;2.65;;;17.50;70.30;;;;;;4771641;30;20434;-74
2023/03/17 13:54:26;;;;;;;7.13;2.80;;;17.50;70.60;;;;;;4787079;30;20483;-74
2023/03/17 13:56:54;;;;;;;6.13;2.90;;;17.60;70.90;;;;;;4787714;29;20507;-74
2023/03/17 13:59:30;;;;;;;8.23;3.80;;;17.70;70.50;;;;;;4771251;30;20051;-74
2023/03/17 14:02:01;;;;;;;5.30;3.10;;;17.70;70.20;;;;;;4785883;29;20502;-74
2023/03/17 14:04:38;;;;;;;5.40;3.20;;;17.80;69.90;;;;;;4771497;30;20147;-75
2023/03/17 14:07:11;;;;;;;6.35;3.20;;;17.80;69.60;;;;;;4785566;29;20028;-75
2023/03/17 14:09:40;;;;;;;6.43;3.47;;;17.80;69.70;;;;;;4785951;29;20035;-74
2023/03/17 14:12:18;;;;;;;5.50;2.83;;;17.90;70.00;;;;;;4787257;29;20029;-74
2023/03/17 14:15:05;;;;;;;7.50;2.80;;;17.90;70.00;;;;;;4786053;30;20484;-74
2023/03/17 14:17:43;;;;;;;5.60;3.60;;;18.00;70.10;;;;;;4787365;29;20406;-74
2023/03/17 14:20:22;;;;;;;6.63;3.30;;;18.00;69.00;;;;;;4785390;30;20035;-74
2023/03/17 14:22:55;;;;;;;8.43;4.10;;;18.10;69.50;;;;;;4768923;29;20138;-74
2023/03/17 14:25:29;;;;;;;5.82;2.95;;;18.10;70.00;;;;;;4786780;30;20051;-75
2023/03/17 14:27:56;;;;;;;5.80;3.08;;;18.10;69.10;;;;;;4787090;30;20111;-75
2023/03/17 14:30:30;;;;;;;5.88;3.38;;;18.10;68.90;;;;;;4787031;29;20050;-76
2023/03/17 14:33:02;;;;;;;7.80;3.40;;;18.10;69.00;;;;;;4770837;30;20126;-75
2023/03/17 14:35:30;;;;;;;3.70;3.10;;;18.10;69.10;;;;;;4786971;29;20484;-74
2023/03/17 14:37:55;;;;;;;4.72;3.80;;;18.10;69.30;;;;;;4770962;30;20289;-74
2023/03/17 14:40:24;;;;;;;5.18;3.65;;;18.10;68.90;;;;;;4770738;30;20059;-74
2023/03/17 14:42:50;;;;;;;5.07;2.92;;;18.10;69.00;;;;;;4787102;30;20035;-75
2023/03/17 14:45:26;;;;;;;4.78;3.05;;;18.10;69.20;;;;;;4770938;30;20378;-75
2023/03/17 14:47:53;;;;;;;6.07;3.28;;;18.20;69.60;;;;;;4787526;30;20031;-75
2023/03/17 14:50:27;;;;;;;5.25;3.17;;;18.20;69.50;;;;;;4787245;30;20031;-74
2023/03/17 14:52:53;;;;;;;6.60;3.50;;;18.10;69.60;;;;;;4786512;29;20425;-74
2023/03/17 14:55:19;;;;;;;6.47;3.28;;;18.10;69.70;;;;;;4755898;30;20066;-74
2023/03/17 14:57:50;;;;;;;8.85;3.60;;;18.10;70.00;;;;;;4786665;30;20055;-75
2023/03/17 15:00:25;;;;;;;6.30;3.35;;;18.10;70.30;;;;;;4786912;29;20036;-75
2023/03/17 15:02:55;;;;;;;7.00;3.47;;;18.10;70.30;;;;;;4785795;29;20040;-75
2023/03/17 15:05:34;;;;;;;9.27;3.50;;;18.10;70.50;;;;;;4786664;30;20553;-74
2023/03/17 15:08:00;;;;;;;8.65;3.97;;;18.10;70.80;;;;;;4786873;30;20034;-76
2023/03/17 15:10:29;;;;;;;7.07;3.55;;;18.00;70.50;;;;;;4770550;30;20035;-76
2023/03/17 15:13:04;;;;;;;8.68;3.85;;;18.00;70.40;;;;;;4768216;30;20046;-75
2023/03/17 15:15:31;;;;;;;8.27;3.95;;;18.00;70.40;;;;;;4786377;30;20035;-76
2023/03/17 15:18:01;;;;;;;8.85;4.30;;;18.00;70.50;;;;;;4785889;30;20028;-76
2023/03/17 15:20:30;;;;;;;8.15;4.13;;;17.90;70.60;;;;;;4784236;30;20105;-75
2023/03/17 15:22:58;;;;;;;6.82;4.28;;;17.90;70.70;;;;;;4786107;30;20051;-76
2023/03/17 15:25:32;;;;;;;8.35;4.28;;;17.80;70.90;;;;;;4784972;29;20043;-75
2023/03/17 15:27:57;;;;;;;8.68;4.32;;;17.80;71.40;;;;;;4786153;30;20040;-76
2023/03/17 15:30:24;;;;;;;8.10;5.97;;;17.80;71.40;;;;;;4786265;30;20038;-76
2023/03/17 15:32:56;;;;;;;8.82;4.55;;;17.80;71.80;;;;;;4786460;30;20047;-75
2023/03/17 15:35:22;;;;;;;7.03;3.95;;;17.80;72.20;;;;;;4784361;29;20091;-75
2023/03/17 15:37:48;;;;;;;8.75;4.65;;;17.70;72.30;;;;;;4785968;30;20471;-75
2023/03/17 15:40:14;;;;;;;9.88;3.42;;;17.70;73.20;;;;;;4786140;30;20569;-76
2023/03/17 15:42:41;;;;;;;4.60;3.08;;;17.60;73.50;;;;;;4786004;29;20043;-74
2023/03/17 15:45:07;;;;;;;5.20;2.83;;;17.70;73.80;;;;;;4785814;29;20432;-76
2023/03/17 15:47:35;;;;;;;6.78;3.38;;;17.60;73.80;;;;;;4785890;30;20035;-75
2023/03/17 15:50:23;;;;;;;6.63;3.22;;;17.60;73.90;;;;;;4784378;29;20494;-74
2023/03/17 15:52:52;;;;;;;8.45;3.30;;;17.60;74.10;;;;;;4778213;30;20434;-75
2023/03/17 15:55:29;;;;;;;8.55;3.38;;;17.50;74.20;;;;;;4786192;30;20426;-74
2023/03/17 15:57:56;;;;;;;6.20;3.08;;;17.50;74.40;;;;;;4784548;30;20055;-76
2023/03/17 16:00:24;;;;;;;6.03;3.10;;;17.50;74.50;;;;;;4785311;30;20514;-75
2023/03/17 16:02:52;;;;;;;7.53;3.30;;;17.50;74.60;;;;;;4785661;29;20054;-74
2023/03/17 16:05:28;;;;;;;8.00;3.35;;;17.40;74.60;;;;;;4784146;29;20126;-75
2023/03/17 16:07:54;;;;;;;6.10;3.08;;;17.40;74.60;;;;;;4769768;30;20065;-74
2023/03/17 16:10:26;;;;;;;7.85;3.58;;;17.40;74.90;;;;;;4753931;30;20047;-76
2023/03/17 16:12:52;;;;;;;8.07;2.95;;;17.40;75.40;;;;;;4785700;30;20053;-74
2023/03/17 16:15:23;;;;;;;7.18;3.30;;;17.40;75.50;;;;;;4769647;30;20496;-74
2023/03/17 16:17:51;;;;;;;7.10;3.80;;;17.40;75.40;;;;;;4784161;29;20489;-75
2023/03/17 16:20:22;;;;;;;4.43;2.85;;;17.40;75.40;;;;;;4784425;30;20373;-74
2023/03/17 16:22:48;;;;;;;8.02;2.60;;;17.30;75.50;;;;;;4785609;30;20539;-74
2023/03/17 16:25:25;;;;;;;5.85;3.10;;;17.30;75.60;;;;;;4769436;30;20043;-74
2023/03/17 16:27:52;;;;;;;5.22;2.95;;;17.30;75.40;;;;;;4784797;30;20108;-74
2023/03/17 16:30:23;;;;;;;4.57;3.15;;;17.20;75.50;;;;;;4786401;29;20415;-75
2023/03/17 16:32:49;;;;;;;6.22;3.00;;;17.20;75.60;;;;;;4789415;29;20088;-74
2023/03/17 16:35:21;;;;;;;7.18;2.95;;;17.20;75.80;;;;;;4788373;30;20373;-75
2023/03/17 16:37:48;;;;;;;5.63;2.58;;;17.20;75.80;;;;;;4788393;29;20129;-76
2023/03/17 16:40:35;;;;;;;9.18;3.53;;;17.20;75.70;;;;;;4789339;30;20031;-74
2023/03/17 16:43:04;;;;;;;6.07;3.30;;;17.20;75.90;;;;;;4789472;30;20028;-74
2023/03/17 16:45:32;;;;;;;10.88;3.80;;;17.00;76.40;;;;;;4772007;30;20048;-74
2023/03/17 16:48:00;;;;;;;7.85;3.25;;;17.00;76.50;;;;;;4789321;29;20038;-74
2023/03/17 16:50:29;;;;;;;6.82;3.10;;;17.00;76.40;;;;;;4788580;29;20115;-76
2023/03/17 16:52:55;;;;;;;10.52;3.70;;;17.00;76.50;;;;;;4787569;29;20484;-74
2023/03/17 16:55:22;;;;;;;8.57;2.83;;;17.00;76.60;;;;;;4789058;29;20035;-74
2023/03/17 16:57:50;;;;;;;6.70;2.70;;;17.00;76.70;;;;;;4788280;29;20036;-74
2023/03/17 17:00:20;;;;;;;7.30;3.10;;;17.00;76.70;;;;;;4787181;29;20043;-75
2023/03/17 17:02:46;;;;;;;7.25;2.88;;;17.00;76.70;;;;;;4785355;30;20092;-74
2023/03/17 17:05:15;;;;;;;5.10;2.90;;;16.90;76.70;;;;;;4787995;29;20043;-74
2023/03/17 17:07:41;;;;;;;6.05;2.60;;;16.90;76.80;;;;;;4787256;29;20032;-75
2023/03/17 17:10:06;;;;;;;6.22;2.60;;;16.90;77.20;;;;;;4772085;30;20104;-74
2023/03/17 17:12:32;;;;;;;8.30;3.28;;;16.90;77.60;;;;;;4757662;30;20463;-75
2023/03/17 17:14:58;;;;;;;5.15;3.17;;;16.80;77.90;;;;;;4770917;30;20078;-75
2023/03/17 17:17:24;;;;;;;9.85;3.40;;;16.80;78.10;;;;;;4772432;30;20370;-74
2023/03/17 17:19:49;;;;;;;12.18;3.53;;;16.80;78.80;;;;;;4786505;30;20616;-73
2023/03/17 17:22:15;;;;;;;10.82;2.92;;;16.70;79.10;;;;;;4757821;30;20036;-76
2023/03/17 17:24:41;;;;;;;6.03;3.10;;;16.70;80.10;;;;;;4753731;30;20591;-73
2023/03/17 17:27:06;;;;;;;5.63;3.00;;;16.70;80.30;;;;;;4783778;29;20043;-75
2023/03/17 17:29:32;;;;;;;7.10;2.97;;;16.60;81.00;;;;;;4770057;30;20369;-77
2023/03/17 17:31:58;;;;;;;7.15;3.08;;;16.60;80.90;;;;;;4762428;30;20694;-76
2023/03/17 17:34:24;;;;;;;5.90;3.00;;;16.60;81.10;;;;;;4764488;30;20087;-75
2023/03/17 17:36:49;;;;;;;5.70;2.97;;;16.50;81.30;;;;;;4768427;30;20035;-75
2023/03/17 17:39:15;;;;;;;11.13;3.72;;;16.50;81.80;;;;;;4770087;30;20048;-75
2023/03/17 17:41:41;;;;;;;8.35;4.10;;;16.50;82.30;;;;;;4769696;30;20091;-75
2023/03/17 17:44:06;;;;;;;9.75;4.30;;;16.50;82.30;;;;;;4764098;30;20059;-76
2023/03/17 17:46:32;;;;;;;10.25;4.40;;;16.50;82.40;;;;;;4768637;30;20039;-75
2023/03/17 17:48:58;;;;;;;10.05;4.13;;;16.50;83.00;;;;;;4766127;30;20044;-75
2023/03/17 17:51:24;;;;;;;9.32;4.03;;;16.50;83.20;;;;;;4749886;30;20118;-75
2023/03/17 17:53:50;;;;;;;6.93;3.40;;;16.40;83.80;;;;;;4767912;30;20031;-75
2023/03/17 17:56:16;;;;;;;9.50;3.53;;;16.50;84.90;;;;;;4763804;30;20378;-77
2023/03/17 17:58:43;;;;;;;5.20;3.05;;;16.50;84.00;;;;;;4772476;30;20466;-75
2023/03/17 18:01:11;;;;;;;9.00;3.15;;;16.50;83.90;;;;;;4767359;30;20042;-75
2023/03/17 18:03:40;;;;;;;10.48;3.22;;;16.50;84.90;;;;;;4782510;29;20035;-74
2023/03/17 18:06:06;;;;;;;6.55;3.22;;;16.50;85.60;;;;;;4754327;30;20089;-77
2023/03/17 18:08:32;;;;;;;8.73;2.85;;;16.50;84.50;;;;;;4768743;30;20133;-77
2023/03/17 18:10:58;;;;;;;8.18;4.00;;;16.40;84.30;;;;;;4783585;29;20465;-82
2023/03/17 18:13:24;;;;;;;7.38;3.20;;;16.40;83.30;;;;;;4763405;30;20039;-77
2023/03/17 18:15:50;;;;;;;6.65;3.28;;;16.40;84.10;;;;;;4767970;30;20035;-79
2023/03/17 18:18:16;;;;;;;6.03;2.85;;;16.40;84.10;;;;;;4768016;30;20036;-75
2023/03/17 18:20:42;;;;;;;9.32;3.40;;;16.40;83.20;;;;;;4765495;30;20032;-77
2023/03/17 18:23:08;;;;;;;7.00;2.95;;;16.30;83.00;;;;;;4767528;30;20044;-78
2023/03/17 18:25:33;;;;;;;13.50;4.00;;;16.30;82.90;;;;;;4783307;29;20063;-77
2023/03/17 18:28:02;;;;;;;10.57;3.90;;;16.30;83.00;;;;;;4788059;29;20102;-74
2023/03/17 18:30:30;;;;;;;11.57;4.55;;;16.30;82.90;;;;;;4788211;29;20039;-73
2023/03/17 18:33:04;;;;;;;12.20;4.15;;;16.30;83.00;;;;;;4789745;29;20039;-74
2023/03/17 18:35:30;;;;;;;8.10;4.10;;;16.20;83.20;;;;;;4791042;29;20035;-74
2023/03/17 18:37:57;;;;;;;9.25;4.90;;;16.20;83.20;;;;;;4790762;29;20031;-75
2023/03/17 18:40:24;;;;;;;9.73;4.43;;;16.20;83.00;;;;;;4774191;30;20467;-76
2023/03/17 18:42:50;;;;;;;7.05;4.25;;;16.20;83.10;;;;;;4790538;29;20090;-74
2023/03/17 18:45:16;;;;;;;9.23;4.82;;;16.20;82.90;;;;;;4787889;29;20039;-74
2023/03/17 18:47:41;;;;;;;12.35;5.78;;;16.10;83.00;;;;;;4771915;30;20046;-75
2023/03/17 18:50:09;;;;;;;11.13;5.90;;;16.10;83.10;;;;;;4785793;29;20521;-75
2023/03/17 18:52:37;;;;;;;13.57;6.25;;;16.10;83.20;;;;;;4786610;29;20039;-74
2023/03/17 18:55:04;;;;;;;14.65;7.20;;;16.10;83.30;;;;;;4771578;30;20049;-75
2023/03/17 18:57:30;;;;;;;7.28;4.40;;;16.10;83.20;;;;;;4787525;29;20114;-74
2023/03/17 18:59:55;;;;;;;6.47;3.08;;;16.10;83.20;;;;;;4771241;29;20130;-76
2023/03/17 19:02:21;;;;;;;7.05;2.88;;;16.00;82.90;;;;;;4787253;29;20050;-75
2023/03/17 19:04:47;;;;;;;8.93;2.70;;;16.00;82.70;;;;;;4782730;30;20063;-73
2023/03/17 19:07:14;;;;;;;5.43;2.35;;;16.00;82.60;;;;;;4780263;30;20047;-74
2023/03/17 19:09:40;;;;;;;5.88;2.10;;;16.00;82.50;;;;;;4800557;29;20354;-75
2023/03/17 19:12:06;;;;;;;4.00;1.80;;;16.00;82.40;;;;;;4790359;29;20034;-74
2023/03/17 19:14:36;;;;;;;8.25;2.00;;;16.00;82.90;;;;;;4797407;29;20039;-74
2023/03/17 19:17:02;;;;;;;4.70;1.83;;;15.90;82.00;;;;;;4783850;29;20043;-75
2023/03/17 19:19:28;;;;;;;7.65;1.98;;;16.00;81.80;;;;;;4792810;29;20039;-74
2023/03/17 19:21:54;;;;;;;9.05;2.05;;;15.90;81.30;;;;;;4794397;29;20502;-74
2023/03/17 19:24:20;;;;;;;6.60;1.65;;;15.90;80.00;;;;;;4794056;29;20154;-75
2023/03/17 19:26:49;;;;;;;4.18;1.50;;;15.90;79.80;;;;;;4793850;29;20058;-73
2023/03/17 19:29:15;;;;;;;4.70;1.23;;;15.80;79.60;;;;;;4779165;30;20039;-74
2023/03/17 19:31:41;;;;;;;3.22;0.77;;;15.80;79.70;;;;;;4804286;29;20183;-76
2023/03/17 19:34:10;;;;;;;4.95;0.80;;;15.70;78.80;;;;;;4786246;29;20054;-74
2023/03/17 19:36:36;;;;;;;6.03;1.10;;;15.70;78.50;;;;;;4751303;30;20035;-74
2023/03/17 19:39:04;;;;;;;4.63;0.88;;;15.60;77.90;;;;;;4785497;29;20045;-74
2023/03/17 19:41:32;;;;;;;3.92;0.73;;;15.60;77.60;;;;;;4795457;29;20035;-74
2023/03/17 19:43:59;;;;;;;3.15;0.93;;;15.60;77.60;;;;;;4778909;29;20069;-75
2023/03/17 19:46:26;;;;;;;3.40;0.82;;;15.70;77.40;;;;;;4793344;29;20542;-74
2023/03/17 19:48:52;;;;;;;4.28;0.90;;;15.70;76.30;;;;;;4805520;29;20035;-74
2023/03/17 19:51:18;;;;;;;1.45;0.60;;;15.60;76.50;;;;;;4797892;29;20039;-74
2023/03/17 19:53:44;;;;;;;4.07;1.02;;;15.60;76.60;;;;;;4813759;29;20031;-75
2023/03/17 19:56:10;;;;;;;3.13;0.80;;;15.60;76.60;;;;;;4796799;29;20130;-73
2023/03/17 19:58:36;;;;;;;3.25;1.05;;;15.60;76.80;;;;;;4781688;30;20043;-74
2023/03/17 20:01:03;;;;;;;3.80;1.15;;;15.60;76.90;;;;;;4809633;29;20043;-73
2023/03/17 20:03:29;;;;;;;2.63;0.70;;;15.50;76.80;;;;;;4803435;29;20039;-72
2023/03/17 20:05:55;;;;;;;2.25;0.82;;;15.60;76.50;;;;;;4807386;29;20027;-73
2023/03/17 20:08:21;;;;;;;4.25;0.73;;;15.60;76.40;;;;;;4811120;29;20039;-74
2023/03/17 20:10:51;;;;;;;4.22;0.68;;;15.60;76.20;;;;;;4810689;29;20030;-74
2023/03/17 20:13:17;;;;;;;2.00;0.68;;;15.60;76.40;;;;;;4809500;29;20068;-73
2023/03/17 20:15:43;;;;;;;4.55;0.82;;;15.50;76.10;;;;;;4798849;29;20043;-74
2023/03/17 20:18:09;;;;;;;6.00;0.80;;;15.50;75.90;;;;;;4791059;29;20480;-73
2023/03/17 20:20:35;;;;;;;3.00;0.70;;;15.50;75.90;;;;;;4803134;29;20030;-73
2023/03/17 20:23:01;;;;;;;3.17;0.80;;;15.50;76.40;;;;;;4801987;29;20027;-72
2023/03/17 20:25:27;;;;;;;6.07;0.85;;;15.50;76.60;;;;;;4804052;29;20507;-72
2023/03/17 20:27:52;;;;;;;2.85;0.80;;;15.50;76.70;;;;;;4801001;29;20062;-72